Time;durP1;ratioP1;P1;durP2;ratioP2;P2;SDS_P1;SDS_P2;PMS_P1;PMS_P2;Temp;Humidity;BMP_temperature;BMP_pressure;BME280_temperature;BME280_humidity;BME280_pressure;Samples;Min_cycle;Max_cycle;Signal;HPM_P1;HPM_P2
2022/01/10 00:00:04;;;;;;;12.90;7.23;;;0.10;99.90;;;;;;5056970;28;20935;-88
2022/01/10 00:02:29;;;;;;;14.80;6.57;;;0.10;99.90;;;;;;5056818;28;20181;-88
2022/01/10 00:04:55;;;;;;;15.30;7.33;;;0.10;99.90;;;;;;5057199;28;20504;-88
2022/01/10 00:07:21;;;;;;;11.63;6.93;;;0.00;99.90;;;;;;5057144;28;20226;-88
2022/01/10 00:09:46;;;;;;;14.80;7.07;;;0.00;99.90;;;;;;5057106;28;20194;-88
2022/01/10 00:12:12;;;;;;;15.10;6.97;;;0.00;99.90;;;;;;5057154;28;20207;-89
2022/01/10 00:14:37;;;;;;;15.40;7.23;;;-0.10;99.90;;;;;;5057555;28;20240;-89
2022/01/10 00:17:04;;;;;;;15.23;7.40;;;-0.10;99.90;;;;;;5058087;28;20183;-90
2022/01/10 00:19:30;;;;;;;16.73;6.90;;;-0.10;99.90;;;;;;5057943;28;20191;-88
2022/01/10 00:21:55;;;;;;;10.90;7.37;;;-0.10;99.90;;;;;;5057617;28;20414;-89
2022/01/10 00:24:21;;;;;;;14.83;7.50;;;-0.20;99.90;;;;;;5058048;28;20211;-92
2022/01/10 00:26:47;;;;;;;19.63;7.43;;;-0.20;99.90;;;;;;5058185;28;20260;-88
2022/01/10 00:29:13;;;;;;;14.63;6.57;;;-0.20;99.90;;;;;;5057669;28;20850;-89
2022/01/10 00:31:39;;;;;;;17.43;6.80;;;-0.20;99.90;;;;;;5057846;28;20624;-91
2022/01/10 00:34:04;;;;;;;22.03;7.37;;;-0.20;99.90;;;;;;5057249;28;20307;-91
2022/01/10 00:36:30;;;;;;;15.03;7.13;;;-0.30;99.90;;;;;;5057636;28;20258;-87
2022/01/10 00:38:56;;;;;;;17.10;6.87;;;-0.30;99.90;;;;;;5058259;28;20184;-92
2022/01/10 00:41:21;;;;;;;14.03;6.97;;;-0.20;99.90;;;;;;5075553;28;20214;-89
2022/01/10 00:43:49;;;;;;;13.33;6.20;;;-0.30;99.90;;;;;;5057617;28;20202;-88
2022/01/10 00:46:15;;;;;;;15.23;6.33;;;-0.30;99.90;;;;;;5057749;28;20199;-89
2022/01/10 00:48:41;;;;;;;12.30;6.53;;;-0.30;99.90;;;;;;5057553;28;20892;-91
2022/01/10 00:51:07;;;;;;;12.10;6.20;;;-0.30;99.90;;;;;;5057369;28;20183;-91
2022/01/10 00:53:32;;;;;;;14.17;6.43;;;-0.40;99.90;;;;;;5057598;28;20210;-90
2022/01/10 00:55:58;;;;;;;13.20;6.27;;;-0.40;99.90;;;;;;5058328;28;20563;-90
2022/01/10 00:58:24;;;;;;;12.90;6.73;;;-0.50;99.90;;;;;;5075472;28;20175;-90
2022/01/10 01:00:52;;;;;;;17.33;6.97;;;-0.50;99.90;;;;;;5058294;28;20176;-91
2022/01/10 01:03:18;;;;;;;11.67;5.93;;;-0.50;99.90;;;;;;5058818;28;20558;-89
2022/01/10 01:05:45;;;;;;;16.67;6.93;;;-0.60;99.90;;;;;;5055791;28;20964;-88
2022/01/10 01:08:12;;;;;;;15.10;6.37;;;-0.50;99.90;;;;;;5056231;28;20479;-89
2022/01/10 01:16:09;;;;;;;14.57;6.37;;;-0.60;99.90;;;;;;5074314;28;20436;-88
2022/01/10 01:24:18;;;;;;;12.37;6.03;;;-0.70;99.90;;;;;;5029510;28;20426;-88
2022/01/10 01:26:47;;;;;;;13.37;6.27;;;-0.70;99.90;;;;;;5056405;28;20509;-89
2022/01/10 01:29:15;;;;;;;17.67;6.87;;;-0.70;99.90;;;;;;5074935;28;20199;-89
2022/01/10 01:31:41;;;;;;;15.57;6.33;;;-0.70;99.90;;;;;;5076651;28;20951;-90
2022/01/10 01:34:07;;;;;;;13.27;6.80;;;-0.70;99.90;;;;;;5057997;28;20453;-89
2022/01/10 01:36:34;;;;;;;12.87;6.07;;;-0.70;99.90;;;;;;5076723;28;20428;-89
2022/01/10 01:39:05;;;;;;;14.37;7.10;;;-0.60;99.90;;;;;;5059010;28;20175;-91
2022/01/10 01:43:59;;;;;;;13.63;6.77;;;-0.70;99.90;;;;;;5077137;28;20945;-92
2022/01/10 01:46:25;;;;;;;15.00;7.50;;;-0.70;99.90;;;;;;5076462;28;20290;-90
2022/01/10 01:48:52;;;;;;;12.90;6.47;;;-0.70;99.90;;;;;;5058671;28;20421;-89
2022/01/10 01:51:19;;;;;;;17.87;6.77;;;-0.80;99.90;;;;;;5059241;28;20428;-89
2022/01/10 01:53:46;;;;;;;14.67;7.37;;;-0.70;99.90;;;;;;5059049;28;20461;-92
2022/01/10 01:56:12;;;;;;;13.43;6.73;;;-0.80;99.90;;;;;;5060178;28;20433;-92
2022/01/10 01:58:39;;;;;;;17.50;6.87;;;-0.80;99.90;;;;;;5059546;28;20426;-91
2022/01/10 02:01:06;;;;;;;16.07;7.40;;;-0.80;99.90;;;;;;5078005;28;20410;-92
2022/01/10 02:03:33;;;;;;;14.63;7.17;;;-0.80;99.90;;;;;;5059705;28;20422;-92
2022/01/10 02:06:00;;;;;;;14.90;7.63;;;-0.80;99.90;;;;;;5059856;28;20441;-91
2022/01/10 02:08:26;;;;;;;14.37;7.13;;;-0.90;99.90;;;;;;5060561;28;20428;-92
2022/01/10 02:10:52;;;;;;;10.43;6.07;;;-0.90;99.90;;;;;;5064519;28;20437;-92
2022/01/10 02:13:18;;;;;;;13.73;6.33;;;-0.90;99.90;;;;;;5063370;28;20491;-89
2022/01/10 02:15:50;;;;;;;14.67;6.70;;;-0.90;99.90;;;;;;5059996;28;20564;-89
2022/01/10 02:18:20;;;;;;;12.90;6.27;;;-0.90;99.90;;;;;;5059423;28;20170;-88
2022/01/10 02:20:47;;;;;;;22.57;7.13;;;-1.00;99.90;;;;;;5059066;28;20410;-87
2022/01/10 02:23:14;;;;;;;11.07;6.07;;;-1.00;99.90;;;;;;5059434;28;20417;-88
2022/01/10 02:25:41;;;;;;;14.87;6.40;;;-1.10;99.90;;;;;;5058690;28;20433;-88
2022/01/10 02:28:06;;;;;;;10.30;6.17;;;-1.10;99.90;;;;;;5058889;28;20808;-89
2022/01/10 02:30:33;;;;;;;17.93;6.73;;;-1.20;99.90;;;;;;5058946;28;20417;-88
2022/01/10 02:33:00;;;;;;;14.43;6.87;;;-1.20;99.90;;;;;;5058875;28;20298;-88
2022/01/10 02:35:36;;;;;;;17.20;7.10;;;-1.20;99.90;;;;;;5058778;28;20462;-88
2022/01/10 02:38:03;;;;;;;11.77;6.50;;;-1.20;99.90;;;;;;5058794;28;20413;-88
2022/01/10 02:40:32;;;;;;;15.97;6.83;;;-1.20;99.90;;;;;;5058611;28;20445;-89
2022/01/10 02:42:58;;;;;;;15.77;6.43;;;-1.20;99.90;;;;;;5059114;28;20445;-90
2022/01/10 02:45:25;;;;;;;16.27;7.07;;;-1.20;99.90;;;;;;5058485;28;20465;-89
2022/01/10 02:47:51;;;;;;;13.00;6.93;;;-1.20;99.90;;;;;;5058719;28;20514;-89
2022/01/10 02:50:19;;;;;;;18.37;6.97;;;-1.20;99.90;;;;;;5058996;28;20417;-90
2022/01/10 02:52:45;;;;;;;12.97;7.03;;;-1.20;99.90;;;;;;5058283;28;20458;-88
2022/01/10 02:55:11;;;;;;;13.77;6.90;;;-1.20;99.90;;;;;;5060276;28;20919;-87
2022/01/10 02:57:38;;;;;;;19.80;7.43;;;-1.20;99.90;;;;;;5058427;28;20809;-88
2022/01/10 03:00:09;;;;;;;13.70;6.93;;;-1.20;99.90;;;;;;5076162;28;20889;-87
2022/01/10 03:02:36;;;;;;;15.30;7.57;;;-1.30;99.90;;;;;;5058475;28;20472;-88
2022/01/10 03:05:03;;;;;;;14.50;7.33;;;-1.30;99.90;;;;;;5058070;28;20793;-89
2022/01/10 03:07:28;;;;;;;17.20;7.20;;;-0.60;99.90;;;;;;5058035;28;20412;-88
2022/01/10 03:09:54;;;;;;;19.53;7.67;;;-1.30;99.90;;;;;;5058317;28;20520;-88
2022/01/10 03:12:21;;;;;;;14.13;6.87;;;-1.30;99.90;;;;;;5057967;28;20237;-88
2022/01/10 03:14:46;;;;;;;16.07;7.10;;;-1.30;99.90;;;;;;5058029;28;20249;-87
2022/01/10 03:17:12;;;;;;;15.17;6.80;;;-1.30;99.90;;;;;;5058076;28;20422;-88
2022/01/10 03:19:40;;;;;;;15.30;7.17;;;-1.20;99.90;;;;;;5058045;28;20247;-87
2022/01/10 03:22:07;;;;;;;13.70;6.60;;;-1.20;99.90;;;;;;5057761;28;20270;-88
2022/01/10 03:24:32;;;;;;;18.20;7.47;;;-1.20;99.90;;;;;;5076046;28;20444;-88
2022/01/10 03:26:58;;;;;;;17.97;7.27;;;-1.20;99.90;;;;;;5057715;28;20425;-88
2022/01/10 03:29:24;;;;;;;15.50;7.60;;;-1.20;99.90;;;;;;5058018;28;20184;-88
2022/01/10 03:31:50;;;;;;;16.20;7.53;;;-1.10;99.90;;;;;;5057768;28;20164;-88
2022/01/10 03:34:15;;;;;;;11.00;6.97;;;-1.20;99.90;;;;;;5057500;28;20727;-88
2022/01/10 03:36:43;;;;;;;17.27;7.43;;;-1.10;99.90;;;;;;5057771;28;20183;-88
2022/01/10 03:39:10;;;;;;;12.43;6.60;;;-1.10;99.90;;;;;;5058290;28;20622;-88
2022/01/10 03:41:36;;;;;;;13.33;6.57;;;-1.10;99.90;;;;;;5057605;28;20782;-88
2022/01/10 03:44:03;;;;;;;13.63;6.23;;;-1.10;99.90;;;;;;5057423;28;20473;-88
2022/01/10 03:46:31;;;;;;;13.33;6.20;;;-1.10;99.90;;;;;;5057177;28;20424;-88
2022/01/10 03:48:57;;;;;;;13.53;5.93;;;-1.00;99.90;;;;;;5057459;28;20421;-89
2022/01/10 03:51:22;;;;;;;13.47;6.73;;;-1.10;99.90;;;;;;5057476;28;20512;-88
2022/01/10 03:53:48;;;;;;;18.30;6.83;;;-1.00;99.90;;;;;;5057182;28;20671;-88
2022/01/10 03:56:13;;;;;;;14.07;4.97;;;-1.00;99.90;;;;;;5057293;28;20199;-88
2022/01/10 03:58:39;;;;;;;16.27;5.93;;;-1.00;99.90;;;;;;5057211;28;20186;-89
2022/01/10 04:01:08;;;;;;;15.23;6.30;;;-1.00;99.90;;;;;;5057292;28;20614;-88
2022/01/10 04:03:33;;;;;;;14.43;6.30;;;-1.00;99.90;;;;;;5057250;28;20190;-89
2022/01/10 04:05:59;;;;;;;12.33;7.20;;;-0.90;99.90;;;;;;5056837;28;20945;-89
2022/01/10 04:08:25;;;;;;;19.57;7.50;;;-0.90;99.90;;;;;;5056939;28;20245;-89
2022/01/10 04:10:52;;;;;;;13.93;6.97;;;-0.90;99.90;;;;;;5056916;28;20179;-88
2022/01/10 04:13:18;;;;;;;23.13;7.03;;;-0.80;99.90;;;;;;5074829;28;20207;-88
2022/01/10 04:15:43;;;;;;;17.97;7.30;;;-0.80;99.90;;;;;;5057094;28;20445;-90
2022/01/10 04:18:09;;;;;;;17.50;6.53;;;-0.80;99.90;;;;;;5057002;28;20651;-89
2022/01/10 04:20:34;;;;;;;15.90;6.77;;;-0.80;99.90;;;;;;5057139;28;20540;-89
2022/01/10 04:23:00;;;;;;;17.03;7.60;;;-0.80;99.90;;;;;;5056790;28;20222;-88
2022/01/10 04:25:26;;;;;;;17.43;7.50;;;-0.90;99.90;;;;;;5057091;28;20261;-88
2022/01/10 04:27:51;;;;;;;13.37;6.47;;;0.10;99.90;;;;;;5074667;28;20183;-88
2022/01/10 04:30:17;;;;;;;13.30;5.93;;;-0.80;99.90;;;;;;5057031;28;20187;-88
2022/01/10 04:32:44;;;;;;;16.67;7.47;;;-0.90;99.90;;;;;;5055989;28;20207;-88
2022/01/10 04:35:10;;;;;;;15.90;5.97;;;-0.90;99.90;;;;;;5056742;28;20208;-89
2022/01/10 04:37:36;;;;;;;12.50;6.30;;;-0.90;99.90;;;;;;5056358;28;20414;-89
2022/01/10 04:40:02;;;;;;;13.00;6.40;;;-0.90;99.90;;;;;;5074135;28;20958;-88
2022/01/10 04:42:28;;;;;;;14.23;7.07;;;-1.00;99.90;;;;;;5056313;28;20194;-88
2022/01/10 04:44:53;;;;;;;20.43;7.23;;;-1.00;99.90;;;;;;5058891;28;20465;-88
2022/01/10 04:47:19;;;;;;;17.63;6.77;;;-1.00;99.90;;;;;;5057251;28;20183;-89
2022/01/10 04:50:07;;;;;;;16.13;5.70;;;-1.00;99.90;;;;;;5056085;28;20179;-87
2022/01/10 04:52:33;;;;;;;14.13;7.17;;;-1.00;99.90;;;;;;5056282;28;20205;-88
2022/01/10 04:55:00;;;;;;;17.83;6.87;;;-1.00;99.90;;;;;;5056180;28;20508;-89
2022/01/10 04:57:26;;;;;;;17.77;6.73;;;-1.00;99.90;;;;;;5056358;28;20628;-90
2022/01/10 04:59:52;;;;;;;15.87;6.53;;;-1.00;99.90;;;;;;5074312;28;20513;-88
2022/01/10 05:02:18;;;;;;;12.27;5.97;;;-1.00;99.90;;;;;;5074047;28;20942;-88
2022/01/10 05:04:44;;;;;;;14.07;6.13;;;-1.00;99.90;;;;;;5055894;28;20207;-88
2022/01/10 05:07:09;;;;;;;14.27;6.43;;;-1.00;99.90;;;;;;5056068;28;20609;-88
2022/01/10 05:09:35;;;;;;;11.27;5.90;;;-1.00;99.90;;;;;;5056010;28;20215;-88
2022/01/10 05:12:01;;;;;;;13.13;6.20;;;-0.90;99.90;;;;;;5055579;28;20202;-89
2022/01/10 05:14:27;;;;;;;10.50;6.00;;;-0.90;99.90;;;;;;5056031;28;20298;-87
2022/01/10 05:16:52;;;;;;;13.23;5.93;;;-0.90;99.90;;;;;;5056059;28;20179;-89
2022/01/10 05:19:18;;;;;;;13.50;6.17;;;-0.90;99.90;;;;;;5055848;28;20648;-88
2022/01/10 05:21:45;;;;;;;15.63;6.67;;;-0.80;99.90;;;;;;5055838;28;20675;-88
2022/01/10 05:24:10;;;;;;;13.17;6.37;;;-0.80;99.90;;;;;;5055752;28;20414;-88
2022/01/10 05:26:36;;;;;;;12.37;6.50;;;-0.80;99.90;;;;;;5055754;28;20421;-90
2022/01/10 05:29:03;;;;;;;16.53;6.60;;;-0.80;99.90;;;;;;5073702;28;20518;-88
2022/01/10 05:31:29;;;;;;;14.23;6.80;;;-0.70;99.90;;;;;;5055636;28;20183;-88
2022/01/10 05:33:55;;;;;;;16.03;7.10;;;-0.70;99.90;;;;;;5056228;28;21040;-88
2022/01/10 05:36:22;;;;;;;16.73;8.27;;;-0.70;99.90;;;;;;5055441;28;20469;-88
2022/01/10 05:38:48;;;;;;;20.80;7.47;;;-0.70;99.90;;;;;;5055357;28;20448;-88
2022/01/10 05:41:13;;;;;;;14.83;7.60;;;-0.70;99.90;;;;;;5055593;28;20414;-89
2022/01/10 05:43:39;;;;;;;14.87;7.30;;;-0.70;99.90;;;;;;5055345;28;20230;-88
2022/01/10 05:46:09;;;;;;;15.80;8.00;;;-0.70;99.90;;;;;;5059275;28;20305;-87
2022/01/10 05:48:36;;;;;;;22.27;10.00;;;-0.70;99.90;;;;;;5059721;28;20210;-89
2022/01/10 05:51:02;;;;;;;14.47;8.90;;;-0.70;99.90;;;;;;5059501;28;20425;-88
2022/01/10 05:53:28;;;;;;;25.27;9.30;;;-0.60;99.90;;;;;;5059599;28;20467;-89
2022/01/10 05:55:53;;;;;;;17.90;9.47;;;-0.60;99.90;;;;;;5059473;28;20900;-88
2022/01/10 05:58:19;;;;;;;18.97;9.13;;;-0.50;99.90;;;;;;5059381;28;20197;-89
2022/01/10 06:00:45;;;;;;;24.93;8.63;;;-0.60;99.90;;;;;;5059575;28;20211;-88
2022/01/10 06:03:11;;;;;;;22.20;9.97;;;-0.60;99.90;;;;;;5059961;28;20716;-88
2022/01/10 06:05:37;;;;;;;20.33;8.53;;;-0.60;99.90;;;;;;5059187;28;20520;-88
2022/01/10 06:08:05;;;;;;;14.37;8.17;;;-0.60;99.90;;;;;;5059535;28;20179;-88
2022/01/10 06:10:31;;;;;;;18.90;8.13;;;-0.60;99.90;;;;;;5059337;28;20184;-88
2022/01/10 06:12:58;;;;;;;20.93;8.37;;;-0.20;99.90;;;;;;5059135;28;20458;-88
2022/01/10 06:15:23;;;;;;;17.37;7.40;;;-0.60;99.90;;;;;;5059179;28;20965;-88
2022/01/10 06:17:50;;;;;;;17.33;8.23;;;-0.60;99.90;;;;;;5060706;28;20457;-88
2022/01/10 06:20:16;;;;;;;21.63;8.57;;;0.40;99.90;;;;;;5060926;28;20175;-90
2022/01/10 06:22:43;;;;;;;19.60;8.80;;;-0.40;99.90;;;;;;5077131;28;20410;-88
2022/01/10 06:25:13;;;;;;;18.33;8.03;;;-0.60;99.90;;;;;;5059020;28;20437;-88
2022/01/10 06:27:39;;;;;;;20.30;8.47;;;-0.60;99.90;;;;;;5059079;28;20459;-88
2022/01/10 06:30:06;;;;;;;22.07;9.27;;;-0.60;99.90;;;;;;5059507;28;20417;-89
2022/01/10 06:32:31;;;;;;;24.07;9.30;;;-0.50;99.90;;;;;;5059613;28;20458;-89
2022/01/10 06:34:57;;;;;;;17.53;8.23;;;-0.50;99.90;;;;;;5060803;28;20448;-89
2022/01/10 06:37:24;;;;;;;22.43;9.47;;;-0.50;99.90;;;;;;5059264;28;20178;-89
2022/01/10 06:39:50;;;;;;;20.30;8.20;;;-0.50;99.90;;;;;;5058728;28;20207;-89
2022/01/10 06:42:16;;;;;;;16.63;7.73;;;-0.50;99.90;;;;;;5059326;28;20453;-89
2022/01/10 06:44:42;;;;;;;18.43;7.97;;;-0.50;99.90;;;;;;5058908;28;20461;-88
2022/01/10 06:47:07;;;;;;;21.13;9.53;;;-0.60;99.90;;;;;;5059551;28;20203;-90
2022/01/10 06:49:33;;;;;;;20.90;9.10;;;0.20;99.90;;;;;;5058738;28;20211;-90
2022/01/10 06:51:59;;;;;;;23.53;8.93;;;-0.60;99.90;;;;;;5058766;28;20715;-89
2022/01/10 06:54:24;;;;;;;18.03;8.40;;;-0.60;99.90;;;;;;5058535;28;20306;-90
2022/01/10 06:56:50;;;;;;;16.70;7.97;;;-0.60;99.90;;;;;;5057800;28;20569;-90
2022/01/10 06:59:16;;;;;;;16.97;8.73;;;0.10;99.90;;;;;;5058306;28;20266;-89
2022/01/10 07:01:42;;;;;;;25.27;8.90;;;-0.70;99.90;;;;;;5058380;28;20170;-88
2022/01/10 07:04:07;;;;;;;18.37;8.53;;;-0.20;99.90;;;;;;5058339;28;20643;-89
2022/01/10 07:06:33;;;;;;;22.13;8.73;;;-0.70;99.90;;;;;;5058264;28;20278;-90
2022/01/10 07:08:58;;;;;;;17.87;8.30;;;-0.70;99.90;;;;;;5058600;28;20184;-89
2022/01/10 07:11:24;;;;;;;18.33;8.67;;;-0.80;99.90;;;;;;5058531;28;20278;-89
2022/01/10 07:13:50;;;;;;;17.93;8.33;;;-0.80;99.90;;;;;;5057905;28;20203;-88
2022/01/10 07:16:16;;;;;;;17.43;7.67;;;-0.80;99.90;;;;;;5057978;28;20199;-88
2022/01/10 07:18:41;;;;;;;17.43;8.10;;;-0.90;99.90;;;;;;5058222;28;20183;-89
2022/01/10 07:21:07;;;;;;;18.77;8.00;;;-0.90;99.90;;;;;;5058077;28;20195;-89
2022/01/10 07:23:33;;;;;;;14.87;6.97;;;-0.90;99.90;;;;;;5058191;28;20279;-89
2022/01/10 07:25:58;;;;;;;18.47;6.30;;;-1.00;99.90;;;;;;5058040;28;20199;-90
2022/01/10 07:28:24;;;;;;;20.53;6.67;;;-1.00;99.90;;;;;;5057929;28;20639;-88
2022/01/10 07:30:50;;;;;;;20.60;7.63;;;-1.00;99.90;;;;;;5057876;28;20215;-89
2022/01/10 07:33:16;;;;;;;13.37;6.57;;;-1.00;99.90;;;;;;5057871;28;20493;-88
2022/01/10 07:35:42;;;;;;;16.43;7.00;;;-1.00;99.90;;;;;;5057542;28;20690;-88
2022/01/10 07:38:08;;;;;;;14.20;5.87;;;-1.00;99.90;;;;;;5057516;28;20426;-90
2022/01/10 07:40:33;;;;;;;16.20;6.07;;;-1.10;99.90;;;;;;5057860;28;20187;-88
2022/01/10 07:42:59;;;;;;;10.00;5.90;;;-1.10;99.90;;;;;;5057529;28;20191;-88
2022/01/10 07:45:24;;;;;;;12.27;6.20;;;-1.20;99.90;;;;;;5057298;28;20223;-88
2022/01/10 07:47:51;;;;;;;14.63;6.07;;;-1.20;99.90;;;;;;5057751;28;20542;-87
2022/01/10 07:50:17;;;;;;;14.20;6.13;;;-1.20;99.90;;;;;;5057469;28;20663;-88
2022/01/10 07:52:42;;;;;;;16.57;6.47;;;-1.20;99.90;;;;;;5057116;28;20458;-88
2022/01/10 07:55:09;;;;;;;13.50;6.00;;;-1.20;99.90;;;;;;5058311;28;20536;-90
2022/01/10 07:57:34;;;;;;;14.30;5.77;;;-1.20;99.90;;;;;;5057178;28;20190;-88
2022/01/10 08:00:00;;;;;;;10.93;6.03;;;-1.20;99.90;;;;;;5057140;28;20901;-87
2022/01/10 08:02:26;;;;;;;12.63;6.60;;;-1.20;99.90;;;;;;5075338;28;20183;-89
2022/01/10 08:04:52;;;;;;;15.47;6.53;;;-1.20;99.90;;;;;;5057197;28;20202;-90
2022/01/10 08:07:18;;;;;;;15.17;7.37;;;-1.20;99.90;;;;;;5056212;28;20268;-90
2022/01/10 08:09:43;;;;;;;9.83;5.80;;;-1.30;99.90;;;;;;5075158;28;20309;-88
2022/01/10 08:12:09;;;;;;;18.07;6.43;;;-1.30;99.90;;;;;;5057335;28;20471;-88
2022/01/10 08:14:35;;;;;;;12.23;6.10;;;-1.30;99.90;;;;;;5057029;28;20191;-89
2022/01/10 08:17:01;;;;;;;16.30;6.73;;;-1.20;99.90;;;;;;5057716;28;20317;-88
2022/01/10 08:19:28;;;;;;;20.07;6.73;;;-1.20;99.90;;;;;;5056738;28;20229;-89
2022/01/10 08:21:56;;;;;;;12.60;6.43;;;-1.20;99.90;;;;;;5057304;28;20182;-89
2022/01/10 08:24:23;;;;;;;14.80;6.60;;;-1.10;99.90;;;;;;5056830;28;20425;-89
2022/01/10 08:26:49;;;;;;;15.63;7.43;;;-1.10;99.90;;;;;;5056718;28;20425;-89
2022/01/10 08:29:15;;;;;;;15.50;6.97;;;-1.10;99.90;;;;;;5057641;28;20425;-89
2022/01/10 08:31:41;;;;;;;26.07;7.07;;;-1.10;99.90;;;;;;5057445;28;20480;-89
2022/01/10 08:34:07;;;;;;;16.47;7.73;;;-1.00;99.90;;;;;;5056509;28;20601;-87
2022/01/10 08:36:33;;;;;;;16.97;7.23;;;-1.00;99.90;;;;;;5056722;28;20178;-89
2022/01/10 08:39:00;;;;;;;20.30;7.70;;;-0.90;99.90;;;;;;5057322;28;20183;-87
2022/01/10 08:41:26;;;;;;;14.63;7.17;;;-1.00;99.90;;;;;;5056581;28;20839;-88
2022/01/10 08:43:51;;;;;;;15.37;7.13;;;-0.90;99.90;;;;;;5056634;28;20453;-87
2022/01/10 08:46:17;;;;;;;14.70;7.37;;;-0.90;99.90;;;;;;5056142;28;20592;-88
2022/01/10 08:48:43;;;;;;;16.60;7.67;;;-0.90;99.90;;;;;;5056272;28;20183;-88
2022/01/10 08:51:08;;;;;;;14.67;7.77;;;-0.80;99.90;;;;;;5056425;28;20559;-89
2022/01/10 08:53:34;;;;;;;24.03;8.33;;;-0.70;99.90;;;;;;5056004;28;20302;-88
2022/01/10 08:56:00;;;;;;;16.90;8.37;;;-0.70;99.90;;;;;;5056573;28;20226;-88
2022/01/10 08:58:32;;;;;;;17.33;8.23;;;-0.60;99.90;;;;;;5056258;28;20522;-88
2022/01/10 09:01:04;;;;;;;23.50;8.50;;;-0.60;99.90;;;;;;5055935;28;20176;-88
2022/01/10 09:03:30;;;;;;;17.77;7.70;;;-0.50;99.90;;;;;;5055942;28;20410;-89
2022/01/10 09:05:56;;;;;;;17.57;7.97;;;-0.50;99.90;;;;;;5056232;28;20448;-88
2022/01/10 09:08:23;;;;;;;21.37;8.67;;;-0.40;99.90;;;;;;5055957;28;20183;-88
2022/01/10 09:10:48;;;;;;;28.40;11.47;;;-0.30;99.90;;;;;;5056227;28;20190;-90
2022/01/10 09:13:14;;;;;;;21.10;7.90;;;-0.30;99.90;;;;;;5056124;28;20465;-89
2022/01/10 09:15:40;;;;;;;18.30;7.80;;;-0.30;99.90;;;;;;5056082;28;20206;-89
2022/01/10 09:18:06;;;;;;;19.03;7.83;;;-0.20;99.90;;;;;;5055688;28;20676;-87
2022/01/10 09:20:31;;;;;;;28.27;9.53;;;-0.20;99.90;;;;;;5056034;28;20222;-88
2022/01/10 09:22:57;;;;;;;20.83;8.43;;;-0.10;99.90;;;;;;5055749;28;20429;-89
2022/01/10 09:25:22;;;;;;;28.30;9.60;;;-0.10;99.90;;;;;;5056140;28;20214;-90
2022/01/10 09:27:49;;;;;;;30.77;9.67;;;0.00;99.90;;;;;;5055796;28;20183;-89
2022/01/10 09:30:14;;;;;;;29.23;10.27;;;0.00;99.90;;;;;;5055697;28;20187;-89
2022/01/10 09:32:40;;;;;;;28.80;10.93;;;0.10;99.90;;;;;;5055911;28;20460;-89
2022/01/10 09:35:07;;;;;;;31.67;11.40;;;0.20;99.90;;;;;;5055788;28;20587;-88
2022/01/10 09:37:33;;;;;;;34.00;11.13;;;0.30;99.90;;;;;;5055710;28;20186;-90
2022/01/10 09:39:58;;;;;;;35.93;12.47;;;0.40;99.90;;;;;;5055591;28;20421;-88
2022/01/10 09:42:24;;;;;;;27.90;11.13;;;0.50;99.90;;;;;;5055641;28;20186;-91
2022/01/10 09:44:51;;;;;;;26.73;10.23;;;0.60;99.90;;;;;;5055574;28;20765;-90
2022/01/10 09:47:17;;;;;;;31.00;11.67;;;0.70;99.90;;;;;;5055809;28;20424;-90
2022/01/10 09:49:42;;;;;;;28.60;12.63;;;0.80;99.90;;;;;;5055520;28;20422;-89
2022/01/10 09:52:09;;;;;;;26.80;11.30;;;0.90;99.90;;;;;;5055344;28;20711;-90
2022/01/10 09:54:34;;;;;;;33.03;12.93;;;0.90;99.90;;;;;;5055444;28;20205;-89
2022/01/10 09:57:00;;;;;;;39.27;12.30;;;1.00;99.90;;;;;;5055721;28;20425;-90
2022/01/10 09:59:26;;;;;;;29.60;12.87;;;1.10;99.90;;;;;;5055968;28;20228;-89
2022/01/10 10:01:52;;;;;;;32.60;12.40;;;1.20;99.90;;;;;;5055517;28;20180;-89
2022/01/10 10:04:19;;;;;;;36.17;13.00;;;1.20;99.90;;;;;;5055327;28;20187;-87
2022/01/10 10:06:45;;;;;;;42.07;13.33;;;1.30;99.90;;;;;;5055249;28;20418;-88
2022/01/10 10:09:11;;;;;;;32.30;11.97;;;1.40;99.90;;;;;;5055572;28;20765;-89
2022/01/10 10:11:48;;;;;;;41.50;12.53;;;1.40;99.90;;;;;;5055078;28;20624;-89
2022/01/10 10:14:17;;;;;;;31.33;13.43;;;1.50;99.90;;;;;;5055205;28;20297;-92
2022/01/10 10:16:49;;;;;;;27.57;12.90;;;1.50;99.90;;;;;;5055447;28;20421;-89
2022/01/10 10:19:25;;;;;;;41.77;13.73;;;1.60;99.90;;;;;;5055067;28;20913;-89
2022/01/10 10:21:52;;;;;;;28.77;12.97;;;1.70;99.90;;;;;;5055240;28;20780;-90
2022/01/10 10:24:19;;;;;;;36.70;14.70;;;1.70;99.90;;;;;;5054941;28;20426;-90
2022/01/10 10:26:45;;;;;;;41.57;15.00;;;1.70;99.90;;;;;;5055670;28;20876;-93
2022/01/10 10:29:14;;;;;;;43.77;15.67;;;1.80;99.90;;;;;;5055566;28;20460;-91
2022/01/10 10:31:45;;;;;;;29.37;14.47;;;1.90;99.90;;;;;;5058104;28;20793;-91
2022/01/10 10:34:12;;;;;;;41.20;17.03;;;2.00;99.90;;;;;;5059349;28;20491;-89
2022/01/10 10:36:38;;;;;;;38.47;15.93;;;2.00;99.90;;;;;;5058831;28;20839;-91
2022/01/10 10:39:07;;;;;;;35.90;16.83;;;2.10;99.90;;;;;;5058536;28;20420;-90
2022/01/10 10:41:34;;;;;;;34.23;15.70;;;2.10;99.90;;;;;;5076665;28;20181;-90
2022/01/10 10:44:00;;;;;;;33.90;14.53;;;2.20;99.90;;;;;;5058716;28;20566;-91
2022/01/10 10:46:27;;;;;;;27.47;15.47;;;2.20;99.90;;;;;;5058340;28;20473;-91
2022/01/10 10:49:03;;;;;;;35.93;16.37;;;2.30;99.90;;;;;;5076447;28;20438;-89
2022/01/10 10:51:36;;;;;;;46.70;15.13;;;2.30;99.90;;;;;;5076501;28;20410;-91
2022/01/10 10:54:07;;;;;;;39.07;14.87;;;2.30;99.90;;;;;;5058168;28;20868;-91
2022/01/10 10:56:34;;;;;;;38.47;14.80;;;2.40;99.90;;;;;;5059430;28;20835;-91
2022/01/10 10:59:00;;;;;;;29.60;14.03;;;2.50;99.90;;;;;;5058331;28;20189;-90
2022/01/10 11:01:26;;;;;;;36.43;14.40;;;2.50;99.90;;;;;;5058122;28;20420;-90
2022/01/10 11:03:53;;;;;;;32.50;13.00;;;2.60;99.90;;;;;;5058613;28;20238;-91
2022/01/10 11:06:19;;;;;;;27.33;13.47;;;2.70;99.90;;;;;;5057959;28;20206;-90
2022/01/10 11:08:46;;;;;;;29.77;13.47;;;3.40;99.90;;;;;;5058467;28;20197;-92
2022/01/10 11:11:21;;;;;;;28.20;12.60;;;2.90;99.90;;;;;;5076412;28;20186;-90
2022/01/10 11:13:48;;;;;;;30.27;12.67;;;3.00;99.90;;;;;;5057990;28;20195;-90
2022/01/10 11:16:14;;;;;;;24.10;12.00;;;3.10;99.90;;;;;;5058358;28;20215;-93
2022/01/10 11:18:40;;;;;;;23.73;10.87;;;3.10;99.90;;;;;;5058289;28;20640;-90
2022/01/10 11:21:06;;;;;;;24.97;11.37;;;3.20;99.90;;;;;;5057857;28;20726;-92
2022/01/10 11:23:38;;;;;;;24.57;10.80;;;3.30;99.90;;;;;;5058399;28;20183;-91
2022/01/10 11:26:06;;;;;;;18.93;9.97;;;3.40;99.90;;;;;;5057809;28;20217;-91
2022/01/10 11:28:32;;;;;;;29.60;10.20;;;3.40;99.90;;;;;;5057755;28;20179;-89
2022/01/10 11:31:04;;;;;;;19.67;9.80;;;3.50;99.90;;;;;;5058348;28;20199;-92
2022/01/10 11:33:32;;;;;;;20.43;9.27;;;3.60;99.90;;;;;;5057489;28;20203;-91
2022/01/10 11:36:00;;;;;;;25.17;9.97;;;3.60;99.90;;;;;;5057861;28;20253;-90
2022/01/10 11:38:38;;;;;;;27.60;8.10;;;3.70;99.90;;;;;;5075957;28;20198;-88
2022/01/10 11:41:10;;;;;;;20.47;8.80;;;3.80;99.90;;;;;;5058158;28;20190;-89
2022/01/10 11:43:57;;;;;;;20.43;8.90;;;3.80;99.90;;;;;;5077035;28;20236;-88
2022/01/10 11:46:41;;;;;;;22.63;9.47;;;3.90;99.90;;;;;;5057635;28;20625;-89
2022/01/10 11:49:11;;;;;;;24.60;9.53;;;4.10;99.90;;;;;;5057604;28;20186;-90
2022/01/10 11:52:00;;;;;;;25.20;9.57;;;4.20;99.90;;;;;;5057995;28;20191;-91
2022/01/10 11:54:37;;;;;;;26.13;9.90;;;4.20;99.90;;;;;;5057352;28;20286;-89
2022/01/10 11:57:04;;;;;;;22.03;8.97;;;4.30;99.90;;;;;;5057973;28;20197;-90
2022/01/10 11:59:32;;;;;;;25.47;9.50;;;4.40;99.90;;;;;;5057348;28;20654;-90
2022/01/10 12:02:01;;;;;;;28.97;9.20;;;4.60;99.90;;;;;;5057081;28;20181;-90
2022/01/10 12:04:30;;;;;;;23.97;8.93;;;4.60;99.90;;;;;;5057484;28;20226;-91
2022/01/10 12:06:56;;;;;;;19.13;8.73;;;4.60;99.90;;;;;;5057224;28;20175;-90
2022/01/10 12:09:22;;;;;;;27.17;8.53;;;4.70;99.90;;;;;;5057281;28;20283;-89
2022/01/10 12:11:50;;;;;;;19.20;8.27;;;4.80;99.90;;;;;;5057323;28;20183;-90
2022/01/10 12:14:17;;;;;;;17.13;8.83;;;5.20;99.90;;;;;;5056815;28;20227;-90
2022/01/10 12:16:42;;;;;;;26.60;9.37;;;4.90;99.90;;;;;;5057495;28;20176;-88
2022/01/10 12:19:09;;;;;;;21.37;9.40;;;5.00;99.90;;;;;;5056947;28;20188;-90
2022/01/10 12:21:35;;;;;;;23.60;8.23;;;5.00;99.90;;;;;;5056691;28;20553;-90
2022/01/10 12:24:02;;;;;;;21.93;9.37;;;5.10;99.90;;;;;;5057030;28;20525;-89
2022/01/10 12:26:28;;;;;;;17.00;7.03;;;5.20;99.90;;;;;;5056764;28;20644;-90
2022/01/10 12:28:56;;;;;;;22.13;8.93;;;5.20;99.90;;;;;;5056676;28;20186;-90
2022/01/10 12:31:23;;;;;;;17.80;8.30;;;5.30;99.90;;;;;;5056623;28;20225;-90
2022/01/10 12:33:51;;;;;;;20.00;8.20;;;5.70;99.90;;;;;;5056262;28;20254;-89
2022/01/10 12:36:18;;;;;;;18.17;8.23;;;5.40;99.90;;;;;;5057203;28;20204;-87
2022/01/10 12:38:47;;;;;;;22.10;8.20;;;5.60;99.90;;;;;;5056610;28;20693;-90
2022/01/10 12:41:13;;;;;;;20.47;8.33;;;5.50;99.90;;;;;;5074145;28;20173;-88
2022/01/10 12:43:38;;;;;;;19.03;7.80;;;5.60;99.90;;;;;;5056600;28;20552;-90
2022/01/10 12:46:04;;;;;;;18.43;7.37;;;5.70;99.90;;;;;;5056386;28;20256;-88
2022/01/10 12:48:29;;;;;;;16.03;6.90;;;5.70;99.90;;;;;;5056991;28;20190;-91